createdAt,value
2023-04-16T00:00:31.629Z,48.62
2023-04-16T00:02:59.031Z,48.72
2023-04-16T00:05:26.481Z,48.41
2023-04-16T00:07:53.786Z,48.87
2023-04-16T00:10:21.093Z,48.71
2023-04-16T00:12:48.530Z,48.98
2023-04-16T00:15:15.794Z,48.74
2023-04-16T00:17:43.210Z,48.92
2023-04-16T00:20:10.987Z,49.15
2023-04-16T00:22:38.209Z,49.21
2023-04-16T00:25:06.118Z,48.70
2023-04-16T00:27:33.492Z,48.77
2023-04-16T00:30:00.756Z,48.92
2023-04-16T00:32:28.268Z,48.87
2023-04-16T00:34:55.716Z,48.96
2023-04-16T00:37:23.068Z,49.48
2023-04-16T00:39:51.225Z,49.09
2023-04-16T00:42:18.675Z,49.17
2023-04-16T00:44:45.868Z,49.15
2023-04-16T00:47:13.197Z,49.10
2023-04-16T00:49:40.651Z,49.16
2023-04-16T00:52:08.133Z,49.16
2023-04-16T00:54:36.006Z,48.99
2023-04-16T00:57:03.607Z,49.05
2023-04-16T00:59:30.972Z,49.04
2023-04-16T01:01:58.381Z,48.72
2023-04-16T01:04:25.903Z,48.66
2023-04-16T01:06:53.397Z,48.77
2023-04-16T01:09:20.567Z,49.31
2023-04-16T01:11:47.777Z,48.97
2023-04-16T01:14:15.091Z,49.34
2023-04-16T01:16:42.452Z,49.25
2023-04-16T01:19:10.104Z,49.27
2023-04-16T01:21:37.505Z,49.00
2023-04-16T01:24:05.728Z,49.00
2023-04-16T01:26:33.333Z,49.17
2023-04-16T01:29:00.975Z,49.70
2023-04-16T01:31:28.281Z,49.34
2023-04-16T01:33:55.601Z,49.54
2023-04-16T01:36:23.298Z,49.36
2023-04-16T01:38:50.606Z,49.22
2023-04-16T01:41:17.759Z,49.25
2023-04-16T01:43:44.999Z,49.75
2023-04-16T01:46:23.926Z,49.29
2023-04-16T01:48:51.203Z,49.39
2023-04-16T01:51:18.495Z,49.33
2023-04-16T01:53:46.052Z,49.19
2023-04-16T01:56:13.439Z,49.43
2023-04-16T01:58:40.611Z,49.53
2023-04-16T02:01:07.879Z,49.58
2023-04-16T02:03:35.666Z,49.38
2023-04-16T02:06:03.027Z,49.73
2023-04-16T02:08:32.950Z,49.51
2023-04-16T02:11:00.725Z,49.50
2023-04-16T02:13:27.898Z,49.63
2023-04-16T02:15:55.398Z,49.81
2023-04-16T02:18:22.703Z,49.71
2023-04-16T02:20:49.961Z,49.50
2023-04-16T02:23:17.796Z,49.52
2023-04-16T02:25:47.303Z,49.44
2023-04-16T02:28:17.286Z,49.82
2023-04-16T02:30:44.821Z,49.69
2023-04-16T02:33:13.130Z,49.97
2023-04-16T02:35:40.878Z,49.63
2023-04-16T02:38:08.905Z,49.50
2023-04-16T02:40:36.764Z,49.70
2023-04-16T02:43:04.063Z,49.97
2023-04-16T02:45:31.874Z,50.00
2023-04-16T02:47:59.287Z,49.61
2023-04-16T02:50:26.594Z,49.55
2023-04-16T02:52:53.817Z,49.61
2023-04-16T02:55:21.192Z,49.93
2023-04-16T02:57:48.449Z,50.12
2023-04-16T03:00:15.757Z,49.78
2023-04-16T03:02:43.028Z,49.79
2023-04-16T03:05:10.883Z,49.54
2023-04-16T03:07:38.206Z,49.63
2023-04-16T03:10:07.446Z,49.58
2023-04-16T03:12:35.471Z,50.10
2023-04-16T03:15:03.216Z,50.33
2023-04-16T03:17:30.456Z,50.28
2023-04-16T03:19:57.753Z,50.44
2023-04-16T03:22:25.265Z,50.14
2023-04-16T03:24:52.460Z,50.50
2023-04-16T03:27:19.686Z,50.13
2023-04-16T03:29:47.181Z,50.06
2023-04-16T03:32:14.506Z,50.17
2023-04-16T03:34:41.742Z,50.09
2023-04-16T03:37:08.948Z,50.45
2023-04-16T03:39:36.041Z,50.36
2023-04-16T03:42:03.749Z,50.47
2023-04-16T03:44:31.121Z,50.24
2023-04-16T03:46:58.414Z,50.76
2023-04-16T03:49:25.666Z,50.56
2023-04-16T03:51:53.188Z,50.60
2023-04-16T03:54:22.454Z,50.52
2023-04-16T03:56:50.341Z,51.19
2023-04-16T03:59:18.139Z,51.03
2023-04-16T04:01:45.521Z,50.72
2023-04-16T04:04:12.767Z,51.01
2023-04-16T04:06:40.106Z,50.86
2023-04-16T04:09:07.485Z,50.88
2023-04-16T04:11:34.818Z,51.04
2023-04-16T04:14:02.228Z,50.69
2023-04-16T04:16:29.530Z,50.89
2023-04-16T04:18:56.775Z,50.90
2023-04-16T04:21:24.212Z,51.13
2023-04-16T04:23:51.416Z,51.24
2023-04-16T04:26:18.963Z,51.16
2023-04-16T04:28:46.441Z,51.20
2023-04-16T04:31:14.293Z,51.28
2023-04-16T04:33:41.540Z,51.13
2023-04-16T04:36:08.764Z,51.17
2023-04-16T04:38:35.970Z,51.15
2023-04-16T04:41:03.262Z,51.55
2023-04-16T04:43:30.702Z,51.12
2023-04-16T04:46:03.255Z,51.01
2023-04-16T04:48:30.541Z,51.04
2023-04-16T04:50:57.800Z,51.30
2023-04-16T04:53:25.023Z,51.00
2023-04-16T04:55:54.174Z,51.25
2023-04-16T04:58:24.624Z,51.14
2023-04-16T05:00:51.979Z,51.33
2023-04-16T05:03:22.703Z,51.31
2023-04-16T05:05:50.027Z,51.52
2023-04-16T05:08:17.260Z,51.63
2023-04-16T05:10:44.520Z,51.53
2023-04-16T05:13:11.779Z,51.53
2023-04-16T05:15:40.521Z,51.17
2023-04-16T05:18:07.754Z,51.29
2023-04-16T05:20:35.077Z,51.16
2023-04-16T05:23:02.277Z,51.20
2023-04-16T05:25:29.681Z,51.28
2023-04-16T05:27:57.065Z,51.32
2023-04-16T05:30:24.311Z,51.01
2023-04-16T05:32:51.732Z,50.98
2023-04-16T05:35:19.176Z,51.14
2023-04-16T05:37:47.683Z,51.31
2023-04-16T05:40:18.218Z,51.19
2023-04-16T05:42:51.814Z,51.44
2023-04-16T05:45:19.324Z,51.51
2023-04-16T05:47:46.485Z,51.09
2023-04-16T05:50:13.749Z,51.08
2023-04-16T05:52:41.090Z,51.41
2023-04-16T05:55:08.763Z,51.04
2023-04-16T05:57:36.026Z,51.45
2023-04-16T06:00:03.500Z,50.88
2023-04-16T06:02:30.970Z,51.08
2023-04-16T06:04:58.166Z,51.14
2023-04-16T06:07:25.339Z,51.26
2023-04-16T06:09:52.903Z,51.14
2023-04-16T06:12:20.157Z,51.41
2023-04-16T06:14:47.440Z,51.43
2023-04-16T06:17:14.872Z,51.57
2023-04-16T06:19:42.092Z,51.27
2023-04-16T06:22:09.498Z,51.68
2023-04-16T06:24:37.155Z,51.51
2023-04-16T06:27:04.729Z,51.14
2023-04-16T06:29:40.468Z,51.21
2023-04-16T06:32:08.719Z,51.10
2023-04-16T06:34:37.260Z,50.80
2023-04-16T06:37:04.507Z,50.82
2023-04-16T06:39:31.802Z,50.57
2023-04-16T06:41:59.115Z,50.80
2023-04-16T06:44:26.330Z,50.53
2023-04-16T06:46:53.773Z,50.64
2023-04-16T06:49:21.469Z,50.54
2023-04-16T06:51:48.713Z,50.25
2023-04-16T06:54:16.317Z,49.95
2023-04-16T06:56:43.676Z,49.83
2023-04-16T06:59:11.373Z,49.98
2023-04-16T07:01:38.820Z,49.88
2023-04-16T07:04:06.182Z,49.24
2023-04-16T07:06:33.429Z,49.04
2023-04-16T07:09:00.657Z,48.51
2023-04-16T07:11:27.970Z,48.18
2023-04-16T07:13:55.388Z,48.20
2023-04-16T07:16:22.659Z,47.97
2023-04-16T07:18:49.985Z,47.75
2023-04-16T07:21:17.312Z,47.90
2023-04-16T07:23:44.616Z,47.56
2023-04-16T07:26:11.870Z,47.50
2023-04-16T07:28:39.155Z,45.97
2023-04-16T07:31:06.592Z,45.32
2023-04-16T07:33:33.846Z,45.22
2023-04-16T07:36:01.151Z,44.77
2023-04-16T07:38:28.367Z,44.53
2023-04-16T07:40:56.157Z,44.03
2023-04-16T07:43:23.334Z,44.00
2023-04-16T07:45:50.660Z,44.43
2023-04-16T07:48:17.937Z,43.85
2023-04-16T07:50:45.400Z,43.52
2023-04-16T07:53:13.030Z,42.47
2023-04-16T07:55:40.213Z,42.06
2023-04-16T07:58:07.372Z,41.15
2023-04-16T08:00:34.616Z,40.79
2023-04-16T08:03:02.000Z,41.03
2023-04-16T08:05:29.516Z,39.44
2023-04-16T08:07:56.825Z,40.29
2023-04-16T08:10:24.077Z,40.43
2023-04-16T08:12:51.386Z,39.99
2023-04-16T08:15:18.789Z,40.02
2023-04-16T08:17:46.255Z,40.14
2023-04-16T08:20:16.945Z,40.96
2023-04-16T08:22:46.787Z,40.31
2023-04-16T08:25:14.737Z,40.52
2023-04-16T08:27:42.077Z,40.77
2023-04-16T08:30:09.408Z,39.93
2023-04-16T08:32:36.678Z,39.85
2023-04-16T08:35:04.527Z,38.96
2023-04-16T08:37:31.960Z,38.04
2023-04-16T08:39:59.123Z,36.47
2023-04-16T08:42:39.388Z,34.18
2023-04-16T08:45:18.302Z,35.50
2023-04-16T08:47:51.075Z,34.12
2023-04-16T08:50:25.313Z,32.49
2023-04-16T08:53:06.602Z,32.93
2023-04-16T08:55:40.632Z,33.38
2023-04-16T08:58:22.837Z,33.08
2023-04-16T09:00:50.321Z,34.43
2023-04-16T09:03:18.130Z,31.66
2023-04-16T09:05:46.758Z,31.56
2023-04-16T09:08:14.367Z,30.93
2023-04-16T09:10:42.501Z,32.76
2023-04-16T09:13:11.020Z,32.75
2023-04-16T09:15:39.871Z,32.60
2023-04-16T09:18:07.158Z,32.61
2023-04-16T09:20:35.163Z,32.75
2023-04-16T09:23:02.398Z,32.91
2023-04-16T09:25:36.032Z,32.19
2023-04-16T09:28:04.090Z,32.20
2023-04-16T09:30:31.260Z,31.30
2023-04-16T09:33:20.608Z,31.48
2023-04-16T09:35:50.271Z,32.38
2023-04-16T09:38:23.793Z,32.10
2023-04-16T09:41:07.836Z,32.06
2023-04-16T09:43:36.977Z,32.55
2023-04-16T09:46:08.210Z,31.95
2023-04-16T09:48:35.920Z,32.16
2023-04-16T09:51:07.029Z,32.26
2023-04-16T09:53:34.501Z,32.09
2023-04-16T09:56:05.464Z,32.02
2023-04-16T09:58:35.925Z,31.89
2023-04-16T10:01:05.426Z,30.18
2023-04-16T10:03:34.693Z,30.92
2023-04-16T10:06:19.405Z,30.12
2023-04-16T10:08:50.657Z,30.47
2023-04-16T10:11:19.786Z,30.84
2023-04-16T10:13:47.315Z,30.63
2023-04-16T10:16:14.750Z,31.21
2023-04-16T10:18:45.066Z,31.22
2023-04-16T10:21:14.013Z,31.44
2023-04-16T10:23:43.961Z,31.28
2023-04-16T10:26:11.616Z,31.68
2023-04-16T10:28:40.630Z,30.51
2023-04-16T10:31:09.771Z,29.40
2023-04-16T10:33:43.169Z,30.54
2023-04-16T10:36:17.080Z,29.66
2023-04-16T10:38:50.332Z,29.39
2023-04-16T10:41:22.759Z,28.12
2023-04-16T10:43:52.334Z,27.84
2023-04-16T10:46:32.118Z,27.67
2023-04-16T10:49:13.515Z,28.36
2023-04-16T10:51:44.335Z,28.50
2023-04-16T10:54:12.279Z,27.38
2023-04-16T10:56:48.185Z,25.98
2023-04-16T10:59:21.180Z,25.62
2023-04-16T11:01:56.114Z,25.63
2023-04-16T11:04:33.892Z,25.45
2023-04-16T11:07:13.270Z,25.78
2023-04-16T11:10:03.319Z,24.42
2023-04-16T11:12:38.232Z,24.25
2023-04-16T11:15:17.819Z,25.16
2023-04-16T11:17:50.484Z,24.28
2023-04-16T11:20:25.321Z,23.70
2023-04-16T11:22:55.945Z,22.44
2023-04-16T11:25:26.009Z,22.42
2023-04-16T11:27:54.029Z,23.06
2023-04-16T11:30:36.575Z,23.01
2023-04-16T11:33:09.974Z,22.44
2023-04-16T11:35:39.520Z,21.77
2023-04-16T11:38:07.239Z,21.46
2023-04-16T11:40:35.417Z,22.01
2023-04-16T11:43:13.849Z,23.00
2023-04-16T11:46:02.609Z,21.44
2023-04-16T11:48:56.169Z,20.65
2023-04-16T11:51:24.138Z,21.56
2023-04-16T11:53:53.763Z,21.96
2023-04-16T11:56:28.617Z,20.72
2023-04-16T11:59:15.805Z,20.42
2023-04-16T12:01:49.354Z,20.83
2023-04-16T12:04:20.650Z,20.04
2023-04-16T12:07:12.529Z,20.32
2023-04-16T12:09:42.676Z,20.90
2023-04-16T12:12:31.902Z,20.71
2023-04-16T12:15:00.314Z,21.16
2023-04-16T12:17:27.746Z,20.46
2023-04-16T12:20:00.942Z,18.39
2023-04-16T12:22:37.425Z,19.39
2023-04-16T12:25:16.762Z,21.36
2023-04-16T12:27:50.683Z,20.13
2023-04-16T12:30:23.779Z,20.42
2023-04-16T12:33:12.116Z,19.99
2023-04-16T12:35:41.148Z,19.21
2023-04-16T12:38:09.168Z,18.95
2023-04-16T12:40:36.985Z,19.30
2023-04-16T12:43:04.253Z,18.56
2023-04-16T12:45:31.711Z,18.40
2023-04-16T12:47:59.499Z,19.00
2023-04-16T12:50:27.187Z,18.29
2023-04-16T12:52:57.627Z,19.32
2023-04-16T12:55:25.682Z,18.65
2023-04-16T12:57:53.335Z,18.17
2023-04-16T13:00:21.272Z,19.67
2023-04-16T13:02:48.958Z,17.49
2023-04-16T13:05:16.807Z,17.48
2023-04-16T13:07:44.565Z,17.33
2023-04-16T13:10:12.680Z,18.26
2023-04-16T13:12:40.376Z,17.44
2023-04-16T13:15:08.542Z,17.89
2023-04-16T13:17:36.176Z,17.38
2023-04-16T13:20:04.450Z,17.86
2023-04-16T13:22:32.190Z,17.82
2023-04-16T13:24:59.744Z,17.63
2023-04-16T13:27:27.840Z,17.40
2023-04-16T13:29:55.453Z,16.66
2023-04-16T13:32:23.083Z,18.31
2023-04-16T13:34:50.795Z,18.39
2023-04-16T13:37:18.501Z,19.46
2023-04-16T13:39:46.122Z,17.97
2023-04-16T13:42:13.696Z,18.20
2023-04-16T13:44:41.762Z,18.09
2023-04-16T13:47:09.690Z,19.27
2023-04-16T13:49:37.267Z,18.18
2023-04-16T13:52:04.871Z,17.95
2023-04-16T13:54:32.444Z,17.79
2023-04-16T13:57:00.412Z,17.75
2023-04-16T13:59:28.071Z,19.11
2023-04-16T14:01:55.754Z,17.15
2023-04-16T14:04:23.527Z,18.24
2023-04-16T14:06:51.452Z,16.98
2023-04-16T14:09:18.990Z,17.79
2023-04-16T14:11:46.617Z,17.52
2023-04-16T14:14:14.416Z,18.07
2023-04-16T14:16:42.119Z,17.13
2023-04-16T14:19:10.157Z,16.89
2023-04-16T14:21:37.879Z,17.25
2023-04-16T14:24:05.685Z,18.24
2023-04-16T14:26:33.216Z,17.92
2023-04-16T14:29:01.018Z,17.28
2023-04-16T14:31:28.495Z,17.57
2023-04-16T14:33:55.695Z,18.07
2023-04-16T14:36:23.025Z,17.95
2023-04-16T14:38:50.400Z,18.00
2023-04-16T14:41:17.715Z,17.05
2023-04-16T14:43:45.225Z,17.92
2023-04-16T14:46:12.667Z,16.75
2023-04-16T14:48:40.274Z,17.54
2023-04-16T14:51:07.520Z,18.31
2023-04-16T14:53:34.919Z,17.87
2023-04-16T14:56:02.324Z,17.29
2023-04-16T14:58:29.805Z,16.28
2023-04-16T15:00:59.097Z,17.33
2023-04-16T15:03:26.738Z,17.50
2023-04-16T15:05:54.523Z,17.67
2023-04-16T15:08:22.910Z,16.55
2023-04-16T15:10:51.228Z,17.49
2023-04-16T15:13:19.002Z,16.96
2023-04-16T15:15:46.356Z,17.00
2023-04-16T15:18:13.742Z,15.83
2023-04-16T15:20:41.075Z,14.50
2023-04-16T15:23:08.676Z,15.58
2023-04-16T15:25:36.046Z,14.40
2023-04-16T15:28:03.421Z,14.88
2023-04-16T15:30:31.628Z,14.89
2023-04-16T15:32:59.614Z,15.62
2023-04-16T15:35:26.905Z,15.76
2023-04-16T15:37:57.276Z,15.79
2023-04-16T15:40:25.555Z,14.65
2023-04-16T15:42:52.737Z,15.53
2023-04-16T15:45:20.097Z,16.75
2023-04-16T15:47:47.563Z,17.22
2023-04-16T15:50:15.195Z,18.86
2023-04-16T15:52:42.531Z,18.51
2023-04-16T15:55:10.325Z,17.98
2023-04-16T15:57:37.545Z,19.98
2023-04-16T16:00:07.373Z,20.08
2023-04-16T16:02:35.236Z,19.84
2023-04-16T16:05:03.127Z,18.82
2023-04-16T16:07:31.440Z,19.24
2023-04-16T16:09:58.848Z,19.93
2023-04-16T16:12:26.060Z,19.24
2023-04-16T16:14:53.353Z,19.41
2023-04-16T16:17:20.616Z,19.93
2023-04-16T16:19:48.125Z,20.55
2023-04-16T16:22:15.540Z,20.64
2023-04-16T16:24:42.935Z,20.35
2023-04-16T16:27:10.225Z,21.36
2023-04-16T16:29:37.519Z,21.07
2023-04-16T16:32:05.253Z,20.44
2023-04-16T16:34:32.759Z,20.83
2023-04-16T16:36:59.965Z,21.52
2023-04-16T16:39:27.654Z,21.56
2023-04-16T16:41:55.064Z,21.06
2023-04-16T16:44:23.085Z,21.38
2023-04-16T16:46:51.045Z,21.31
2023-04-16T16:49:18.754Z,21.92
2023-04-16T16:51:47.039Z,21.93
2023-04-16T16:54:14.888Z,21.31
2023-04-16T16:56:42.567Z,22.84
2023-04-16T16:59:10.852Z,23.67
2023-04-16T17:01:38.452Z,24.99
2023-04-16T17:04:06.082Z,25.45
2023-04-16T17:06:33.760Z,26.85
2023-04-16T17:09:02.248Z,27.80
2023-04-16T17:11:29.755Z,26.60
2023-04-16T17:13:57.216Z,28.25
2023-04-16T17:16:25.019Z,28.20
2023-04-16T17:18:52.288Z,27.60
2023-04-16T17:21:19.402Z,28.57
2023-04-16T17:23:46.643Z,28.88
2023-04-16T17:26:14.386Z,29.31
2023-04-16T17:28:41.675Z,29.56
2023-04-16T17:31:08.912Z,27.57
2023-04-16T17:33:36.755Z,27.22
2023-04-16T17:36:04.900Z,28.12
2023-04-16T17:38:32.885Z,28.75
2023-04-16T17:41:00.382Z,28.47
2023-04-16T17:43:28.549Z,26.00
2023-04-16T17:45:56.390Z,27.67
2023-04-16T17:48:23.625Z,28.27
2023-04-16T17:50:51.008Z,27.13
2023-04-16T17:53:18.302Z,26.62
2023-04-16T17:55:54.547Z,27.51
2023-04-16T17:58:23.882Z,27.85
2023-04-16T18:00:51.339Z,26.91
2023-04-16T18:03:20.697Z,26.80
2023-04-16T18:05:49.438Z,25.46
2023-04-16T18:08:17.442Z,25.75
2023-04-16T18:10:45.505Z,26.30
2023-04-16T18:13:12.973Z,28.25
2023-04-16T18:15:40.613Z,30.52
2023-04-16T18:18:08.553Z,31.26
2023-04-16T18:20:35.922Z,31.17
2023-04-16T18:23:03.701Z,31.61
2023-04-16T18:25:34.960Z,32.43
2023-04-16T18:28:03.268Z,32.28
2023-04-16T18:30:31.010Z,32.85
2023-04-16T18:35:28.931Z,33.06
2023-04-16T18:37:56.388Z,33.11
2023-04-16T18:40:23.993Z,32.04
2023-04-16T18:42:52.992Z,33.30
2023-04-16T18:45:21.918Z,33.95
2023-04-16T18:47:49.801Z,34.09
2023-04-16T18:50:18.720Z,34.24
2023-04-16T18:52:46.335Z,33.95
2023-04-16T18:55:16.699Z,34.28
2023-04-16T18:57:44.550Z,34.80
2023-04-16T19:00:13.086Z,35.32
2023-04-16T19:02:40.806Z,35.45
2023-04-16T19:05:09.828Z,36.04
2023-04-16T19:07:37.687Z,36.50
2023-04-16T19:10:06.171Z,36.68
2023-04-16T19:12:33.452Z,36.44
2023-04-16T19:15:01.166Z,36.75
2023-04-16T19:17:28.611Z,36.37
2023-04-16T19:19:56.089Z,36.51
2023-04-16T19:22:23.656Z,36.20
2023-04-16T19:24:51.011Z,36.23
2023-04-16T19:27:18.480Z,36.40
2023-04-16T19:29:45.673Z,36.70
2023-04-16T19:32:14.135Z,37.01
2023-04-16T19:34:41.606Z,36.98
2023-04-16T19:37:08.881Z,37.18
2023-04-16T19:39:36.480Z,37.81
2023-04-16T19:42:04.471Z,37.64
2023-04-16T19:44:31.646Z,37.52
2023-04-16T19:46:59.590Z,37.35
2023-04-16T19:49:27.248Z,37.93
2023-04-16T19:51:54.504Z,38.19
2023-04-16T19:54:21.715Z,38.72
2023-04-16T19:56:50.288Z,38.72
2023-04-16T19:59:18.298Z,38.89
2023-04-16T20:01:46.510Z,39.19
2023-04-16T20:04:13.750Z,38.86
2023-04-16T20:06:41.493Z,38.98
2023-04-16T20:09:08.897Z,39.14
2023-04-16T20:11:36.208Z,38.94
2023-04-16T20:14:03.893Z,39.28
2023-04-16T20:16:31.379Z,39.54
2023-04-16T20:18:59.793Z,39.78
2023-04-16T20:21:28.024Z,39.77
2023-04-16T20:23:55.251Z,39.36
2023-04-16T20:26:22.994Z,39.68
2023-04-16T20:28:50.368Z,40.12
2023-04-16T20:31:17.897Z,40.25
2023-04-16T20:33:45.595Z,40.11
2023-04-16T20:36:12.881Z,39.99
2023-04-16T20:38:40.124Z,40.24
2023-04-16T20:41:07.400Z,40.52
2023-04-16T20:43:34.596Z,40.53
2023-04-16T20:46:01.866Z,40.79
2023-04-16T20:48:29.126Z,40.72
2023-04-16T20:51:04.539Z,40.83
2023-04-16T20:53:32.884Z,41.05
2023-04-16T20:56:00.413Z,41.04
2023-04-16T20:58:27.811Z,41.32
2023-04-16T21:00:57.494Z,41.11
2023-04-16T21:03:26.258Z,41.16
2023-04-16T21:05:55.672Z,41.45
2023-04-16T21:08:24.420Z,41.64
2023-04-16T21:10:51.859Z,41.55
2023-04-16T21:13:19.648Z,41.18
2023-04-16T21:15:47.062Z,41.18
2023-04-16T21:18:14.664Z,41.82
2023-04-16T21:20:41.856Z,41.61
2023-04-16T21:23:09.473Z,41.69
2023-04-16T21:25:36.760Z,41.70
2023-04-16T21:28:04.110Z,42.03
2023-04-16T21:30:31.253Z,42.10
2023-04-16T21:32:58.691Z,42.10
2023-04-16T21:35:26.133Z,42.03
2023-04-16T21:37:53.509Z,42.20
2023-04-16T21:40:20.835Z,42.27
2023-04-16T21:42:48.411Z,42.62
2023-04-16T21:45:15.642Z,42.63
2023-04-16T21:47:43.011Z,42.54
2023-04-16T21:50:11.015Z,42.84
2023-04-16T21:52:38.338Z,43.05
2023-04-16T21:55:08.038Z,42.99
2023-04-16T21:57:35.288Z,43.22
2023-04-16T22:00:02.848Z,42.80
2023-04-16T22:02:30.190Z,43.11
2023-04-16T22:04:57.403Z,43.34
2023-04-16T22:07:24.532Z,43.58
2023-04-16T22:09:51.664Z,43.74
2023-04-16T22:12:18.938Z,43.60
2023-04-16T22:14:59.558Z,43.14
2023-04-16T22:17:29.433Z,43.06
2023-04-16T22:19:56.718Z,43.20
2023-04-16T22:22:23.974Z,43.26
2023-04-16T22:24:51.264Z,43.63
2023-04-16T22:27:18.921Z,43.46
2023-04-16T22:29:46.241Z,43.32
2023-04-16T22:32:13.475Z,43.74
2023-04-16T22:34:40.778Z,43.48
2023-04-16T22:37:08.133Z,44.21
2023-04-16T22:39:35.434Z,44.10
2023-04-16T22:42:02.687Z,43.91
2023-04-16T22:44:29.865Z,43.85
2023-04-16T22:46:57.238Z,43.89
2023-04-16T22:49:24.482Z,44.10
2023-04-16T22:51:51.686Z,44.23
2023-04-16T22:54:18.878Z,44.26
2023-04-16T22:56:46.509Z,44.26
2023-04-16T22:59:13.880Z,44.04
2023-04-16T23:01:41.199Z,44.14
2023-04-16T23:04:08.556Z,43.92
2023-04-16T23:06:35.821Z,44.03
2023-04-16T23:09:03.096Z,44.23
2023-04-16T23:11:30.281Z,44.52
2023-04-16T23:13:57.637Z,44.49
2023-04-16T23:16:24.915Z,44.53
2023-04-16T23:18:52.137Z,44.41
2023-04-16T23:21:19.231Z,44.58
2023-04-16T23:23:46.507Z,44.16
2023-04-16T23:26:13.908Z,44.34
2023-04-16T23:28:41.523Z,44.38
2023-04-16T23:31:08.962Z,44.34
2023-04-16T23:33:36.144Z,44.33
2023-04-16T23:36:03.665Z,44.25
2023-04-16T23:38:30.939Z,44.75
2023-04-16T23:40:58.130Z,44.55
2023-04-16T23:43:25.416Z,44.48
2023-04-16T23:45:52.709Z,44.53
2023-04-16T23:48:20.070Z,44.91
2023-04-16T23:50:47.546Z,44.90
2023-04-16T23:53:14.776Z,45.00
2023-04-16T23:55:42.040Z,44.79
2023-04-16T23:58:09.273Z,45.17
